sensor_id;sensor_type;location;lat;lon;timestamp;pressure;altitude;pressure_sealevel;temperature;humidity
20696;BME280;10507;52.754;13.040;2023-04-16T00:00:06;101558.22;;;9.00;100.00
20696;BME280;10507;52.754;13.040;2023-04-16T00:02:34;101559.09;;;9.00;100.00
20696;BME280;10507;52.754;13.040;2023-04-16T00:05:03;101576.81;;;9.01;100.00
20696;BME280;10507;52.754;13.040;2023-04-16T00:07:32;101577.84;;;8.97;100.00
20696;BME280;10507;52.754;13.040;2023-04-16T00:10:00;101578.75;;;8.96;100.00
20696;BME280;10507;52.754;13.040;2023-04-16T00:12:28;101578.84;;;8.93;100.00
20696;BME280;10507;52.754;13.040;2023-04-16T00:14:56;101590.31;;;8.95;100.00
20696;BME280;10507;52.754;13.040;2023-04-16T00:17:24;101587.72;;;8.92;100.00
20696;BME280;10507;52.754;13.040;2023-04-16T00:19:51;101573.69;;;8.87;100.00
20696;BME280;10507;52.754;13.040;2023-04-16T00:22:19;101594.00;;;8.89;100.00
20696;BME280;10507;52.754;13.040;2023-04-16T00:24:49;101590.59;;;8.86;100.00
20696;BME280;10507;52.754;13.040;2023-04-16T00:27:17;101612.81;;;8.83;100.00
20696;BME280;10507;52.754;13.040;2023-04-16T00:29:45;101606.72;;;8.80;100.00
20696;BME280;10507;52.754;13.040;2023-04-16T00:32:13;101624.53;;;8.78;100.00
20696;BME280;10507;52.754;13.040;2023-04-16T00:34:41;101637.84;;;8.78;100.00
20696;BME280;10507;52.754;13.040;2023-04-16T00:37:09;101648.59;;;8.74;100.00
20696;BME280;10507;52.754;13.040;2023-04-16T00:39:37;101650.41;;;8.72;100.00
20696;BME280;10507;52.754;13.040;2023-04-16T00:42:06;101641.63;;;8.69;100.00
20696;BME280;10507;52.754;13.040;2023-04-16T00:44:34;101652.28;;;8.67;100.00
20696;BME280;10507;52.754;13.040;2023-04-16T00:47:03;101648.84;;;8.64;100.00
20696;BME280;10507;52.754;13.040;2023-04-16T00:49:33;101649.75;;;8.63;100.00
20696;BME280;10507;52.754;13.040;2023-04-16T00:52:02;101656.84;;;8.64;100.00
20696;BME280;10507;52.754;13.040;2023-04-16T00:54:30;101674.56;;;8.65;100.00
20696;BME280;10507;52.754;13.040;2023-04-16T00:56:58;101658.69;;;8.60;100.00
20696;BME280;10507;52.754;13.040;2023-04-16T00:59:28;101659.63;;;8.59;100.00
20696;BME280;10507;52.754;13.040;2023-04-16T01:01:56;101660.59;;;8.55;100.00
20696;BME280;10507;52.754;13.040;2023-04-16T01:04:24;101658.06;;;8.50;100.00
20696;BME280;10507;52.754;13.040;2023-04-16T01:06:52;101680.22;;;8.51;100.00
20696;BME280;10507;52.754;13.040;2023-04-16T01:09:20;101683.88;;;8.47;100.00
20696;BME280;10507;52.754;13.040;2023-04-16T01:11:47;101691.00;;;8.45;100.00
20696;BME280;10507;52.754;13.040;2023-04-16T01:14:15;101698.16;;;8.43;100.00
20696;BME280;10507;52.754;13.040;2023-04-16T01:16:44;101701.75;;;8.42;100.00
20696;BME280;10507;52.754;13.040;2023-04-16T01:19:12;101714.19;;;8.40;100.00
20696;BME280;10507;52.754;13.040;2023-04-16T01:21:41;101734.59;;;8.39;100.00
20696;BME280;10507;52.754;13.040;2023-04-16T01:24:09;101755.91;;;8.38;100.00
20696;BME280;10507;52.754;13.040;2023-04-16T01:26:37;101746.22;;;8.35;100.00
20696;BME280;10507;52.754;13.040;2023-04-16T01:29:04;101770.16;;;8.35;100.00
20696;BME280;10507;52.754;13.040;2023-04-16T01:31:33;101782.63;;;8.33;100.00
20696;BME280;10507;52.754;13.040;2023-04-16T01:34:01;101781.81;;;8.29;100.00
20696;BME280;10507;52.754;13.040;2023-04-16T01:36:28;101808.38;;;8.32;100.00
20696;BME280;10507;52.754;13.040;2023-04-16T01:38:58;101812.84;;;8.30;100.00
20696;BME280;10507;52.754;13.040;2023-04-16T01:41:26;101820.84;;;8.29;100.00
20696;BME280;10507;52.754;13.040;2023-04-16T01:43:53;101834.13;;;8.30;100.00
20696;BME280;10507;52.754;13.040;2023-04-16T01:46:26;101843.94;;;8.28;100.00
20696;BME280;10507;52.754;13.040;2023-04-16T01:48:54;101849.25;;;8.28;100.00
20696;BME280;10507;52.754;13.040;2023-04-16T01:51:23;101869.59;;;8.31;100.00
20696;BME280;10507;52.754;13.040;2023-04-16T01:53:50;101856.38;;;8.28;100.00
20696;BME280;10507;52.754;13.040;2023-04-16T01:56:19;101860.75;;;8.29;100.00
20696;BME280;10507;52.754;13.040;2023-04-16T01:58:47;101882.91;;;8.31;100.00
20696;BME280;10507;52.754;13.040;2023-04-16T02:01:15;101864.38;;;8.26;100.00
20696;BME280;10507;52.754;13.040;2023-04-16T02:03:43;101854.66;;;8.24;100.00
20696;BME280;10507;52.754;13.040;2023-04-16T02:06:11;101851.06;;;8.26;100.00
20696;BME280;10507;52.754;13.040;2023-04-16T02:08:40;101844.00;;;8.25;100.00
20696;BME280;10507;52.754;13.040;2023-04-16T02:11:08;101835.19;;;8.22;100.00
20696;BME280;10507;52.754;13.040;2023-04-16T02:13:38;101841.38;;;8.24;100.00
20696;BME280;10507;52.754;13.040;2023-04-16T02:16:06;101836.06;;;8.22;100.00
20696;BME280;10507;52.754;13.040;2023-04-16T02:18:34;101830.81;;;8.21;100.00
20696;BME280;10507;52.754;13.040;2023-04-16T02:21:02;101853.81;;;8.23;100.00
20696;BME280;10507;52.754;13.040;2023-04-16T02:23:31;101839.66;;;8.21;100.00
20696;BME280;10507;52.754;13.040;2023-04-16T02:25:59;101849.38;;;8.22;100.00
20696;BME280;10507;52.754;13.040;2023-04-16T02:28:27;101847.56;;;8.23;100.00
20696;BME280;10507;52.754;13.040;2023-04-16T02:30:56;101837.00;;;8.21;100.00
20696;BME280;10507;52.754;13.040;2023-04-16T02:33:25;101843.16;;;8.23;100.00
20696;BME280;10507;52.754;13.040;2023-04-16T02:35:54;101844.00;;;8.25;100.00
20696;BME280;10507;52.754;13.040;2023-04-16T02:38:21;101847.50;;;8.27;100.00
20696;BME280;10507;52.754;13.040;2023-04-16T02:40:49;101852.84;;;8.27;100.00
20696;BME280;10507;52.754;13.040;2023-04-16T02:43:17;101830.75;;;8.22;100.00
20696;BME280;10507;52.754;13.040;2023-04-16T02:45:45;101844.88;;;8.26;100.00
20696;BME280;10507;52.754;13.040;2023-04-16T02:48:15;101851.06;;;8.26;100.00
20696;BME280;10507;52.754;13.040;2023-04-16T02:50:43;101871.41;;;8.29;100.00
20696;BME280;10507;52.754;13.040;2023-04-16T02:53:11;101853.72;;;8.26;100.00
20696;BME280;10507;52.754;13.040;2023-04-16T02:55:38;101846.59;;;8.27;100.00
20696;BME280;10507;52.754;13.040;2023-04-16T02:58:06;101861.63;;;8.29;100.00
20696;BME280;10507;52.754;13.040;2023-04-16T03:00:34;101843.94;;;8.28;100.00
20696;BME280;10507;52.754;13.040;2023-04-16T03:03:02;101833.31;;;8.27;100.00
20696;BME280;10507;52.754;13.040;2023-04-16T03:05:31;101813.91;;;8.23;100.00
20696;BME280;10507;52.754;13.040;2023-04-16T03:07:59;101821.88;;;8.23;100.00
20696;BME280;10507;52.754;13.040;2023-04-16T03:10:27;101805.16;;;8.17;100.00
20696;BME280;10507;52.754;13.040;2023-04-16T03:12:54;101812.31;;;8.13;100.00
20696;BME280;10507;52.754;13.040;2023-04-16T03:15:22;101831.81;;;8.13;100.00
20696;BME280;10507;52.754;13.040;2023-04-16T03:17:50;101855.75;;;8.13;100.00
20696;BME280;10507;52.754;13.040;2023-04-16T03:20:18;101860.28;;;8.10;100.00
20696;BME280;10507;52.754;13.040;2023-04-16T03:22:49;101881.50;;;8.11;100.00
20696;BME280;10507;52.754;13.040;2023-04-16T03:25:18;101894.84;;;8.10;100.00
20696;BME280;10507;52.754;13.040;2023-04-16T03:27:46;101916.09;;;8.11;100.00
20696;BME280;10507;52.754;13.040;2023-04-16T03:30:14;101903.81;;;8.04;100.00
20696;BME280;10507;52.754;13.040;2023-04-16T03:32:42;101929.47;;;8.08;100.00
20696;BME280;10507;52.754;13.040;2023-04-16T03:35:10;101932.13;;;8.07;100.00
20696;BME280;10507;52.754;13.040;2023-04-16T03:37:38;101933.91;;;8.08;100.00
20696;BME280;10507;52.754;13.040;2023-04-16T03:40:07;101938.38;;;8.06;100.00
20696;BME280;10507;52.754;13.040;2023-04-16T03:42:35;101944.56;;;8.06;100.00
20696;BME280;10507;52.754;13.040;2023-04-16T03:45:04;101948.94;;;8.09;100.00
20696;BME280;10507;52.754;13.040;2023-04-16T03:47:32;101950.75;;;8.07;100.00
20696;BME280;10507;52.754;13.040;2023-04-16T03:50:00;101955.22;;;8.05;100.00
20696;BME280;10507;52.754;13.040;2023-04-16T03:52:28;101955.28;;;8.03;100.00
20696;BME280;10507;52.754;13.040;2023-04-16T03:54:55;101972.09;;;8.04;100.00
20696;BME280;10507;52.754;13.040;2023-04-16T03:57:24;101980.09;;;8.02;100.00
20696;BME280;10507;52.754;13.040;2023-04-16T03:59:52;101976.59;;;8.00;100.00
20696;BME280;10507;52.754;13.040;2023-04-16T04:02:20;101990.78;;;8.01;100.00
20696;BME280;10507;52.754;13.040;2023-04-16T04:04:48;101993.44;;;8.01;100.00
20696;BME280;10507;52.754;13.040;2023-04-16T04:07:16;102003.16;;;8.02;100.00
20696;BME280;10507;52.754;13.040;2023-04-16T04:09:44;102021.78;;;8.02;100.00
20696;BME280;10507;52.754;13.040;2023-04-16T04:12:12;102024.47;;;8.00;100.00
20696;BME280;10507;52.754;13.040;2023-04-16T04:14:41;102038.59;;;8.04;100.00
20696;BME280;10507;52.754;13.040;2023-04-16T04:17:09;102046.56;;;8.04;100.00
20696;BME280;10507;52.754;13.040;2023-04-16T04:19:36;102054.53;;;8.05;100.00
20696;BME280;10507;52.754;13.040;2023-04-16T04:22:16;102054.56;;;8.02;100.00
20696;BME280;10507;52.754;13.040;2023-04-16T04:24:44;102045.78;;;7.99;100.00
20696;BME280;10507;52.754;13.040;2023-04-16T04:27:11;102060.81;;;8.00;100.00
20696;BME280;10507;52.754;13.040;2023-04-16T04:29:41;102083.00;;;7.99;100.00
20696;BME280;10507;52.754;13.040;2023-04-16T04:32:08;102098.97;;;7.99;100.00
20696;BME280;10507;52.754;13.040;2023-04-16T04:34:36;102107.84;;;7.98;100.00
20696;BME280;10507;52.754;13.040;2023-04-16T04:37:04;102107.81;;;7.99;100.00
20696;BME280;10507;52.754;13.040;2023-04-16T04:39:32;102124.63;;;8.01;100.00
20696;BME280;10507;52.754;13.040;2023-04-16T04:42:00;102109.63;;;7.99;100.00
20696;BME280;10507;52.754;13.040;2023-04-16T04:44:28;102133.50;;;8.02;100.00
20696;BME280;10507;52.754;13.040;2023-04-16T04:46:57;102133.50;;;8.02;100.00
20696;BME280;10507;52.754;13.040;2023-04-16T04:49:25;102138.75;;;8.05;100.00
20696;BME280;10507;52.754;13.040;2023-04-16T04:51:53;102140.53;;;8.04;100.00
20696;BME280;10507;52.754;13.040;2023-04-16T04:54:21;102116.66;;;8.01;100.00
20696;BME280;10507;52.754;13.040;2023-04-16T04:56:49;102114.88;;;8.00;100.00
20696;BME280;10507;52.754;13.040;2023-04-16T04:59:19;102117.53;;;8.02;100.00
20696;BME280;10507;52.754;13.040;2023-04-16T05:01:47;102105.22;;;7.96;100.00
20696;BME280;10507;52.754;13.040;2023-04-16T05:04:16;102128.16;;;8.03;100.00
20696;BME280;10507;52.754;13.040;2023-04-16T05:06:44;102133.47;;;8.03;100.00
20696;BME280;10507;52.754;13.040;2023-04-16T05:09:12;102129.91;;;8.04;100.00
20696;BME280;10507;52.754;13.040;2023-04-16T05:11:40;102135.19;;;8.07;100.00
20696;BME280;10507;52.754;13.040;2023-04-16T05:14:08;102124.63;;;8.03;100.00
20696;BME280;10507;52.754;13.040;2023-04-16T05:16:36;102151.97;;;8.11;100.00
20696;BME280;10507;52.754;13.040;2023-04-16T05:19:04;102122.75;;;8.08;100.00
20696;BME280;10507;52.754;13.040;2023-04-16T05:21:34;102126.31;;;8.07;100.00
20696;BME280;10507;52.754;13.040;2023-04-16T05:24:02;102125.44;;;8.05;100.00
20696;BME280;10507;52.754;13.040;2023-04-16T05:26:30;102156.41;;;8.12;100.00
20696;BME280;10507;52.754;13.040;2023-04-16T05:28:57;102137.78;;;8.10;100.00
20696;BME280;10507;52.754;13.040;2023-04-16T05:31:25;102136.00;;;8.11;100.00
20696;BME280;10507;52.754;13.040;2023-04-16T05:33:53;102136.00;;;8.12;100.00
20696;BME280;10507;52.754;13.040;2023-04-16T05:36:21;102130.59;;;8.16;100.00
20696;BME280;10507;52.754;13.040;2023-04-16T05:38:50;102142.97;;;8.18;100.00
20696;BME280;10507;52.754;13.040;2023-04-16T05:41:18;102142.94;;;8.21;100.00
20696;BME280;10507;52.754;13.040;2023-04-16T05:43:46;102119.00;;;8.21;100.00
20696;BME280;10507;52.754;13.040;2023-04-16T05:46:14;102112.75;;;8.24;100.00
20696;BME280;10507;52.754;13.040;2023-04-16T05:48:42;102092.41;;;8.20;100.00
20696;BME280;10507;52.754;13.040;2023-04-16T05:51:09;102091.53;;;8.21;100.00
20696;BME280;10507;52.754;13.040;2023-04-16T05:53:37;102101.16;;;8.26;100.00
20696;BME280;10507;52.754;13.040;2023-04-16T05:56:07;102077.25;;;8.25;100.00
20696;BME280;10507;52.754;13.040;2023-04-16T05:58:34;102092.25;;;8.29;100.00
20696;BME280;10507;52.754;13.040;2023-04-16T06:01:02;102095.78;;;8.29;100.00
20696;BME280;10507;52.754;13.040;2023-04-16T06:03:30;102076.38;;;8.24;100.00
20696;BME280;10507;52.754;13.040;2023-04-16T06:05:58;102086.97;;;8.27;100.00
20696;BME280;10507;52.754;13.040;2023-04-16T06:08:26;102093.09;;;8.31;100.00
20696;BME280;10507;52.754;13.040;2023-04-16T06:10:54;102087.78;;;8.31;100.00
20696;BME280;10507;52.754;13.040;2023-04-16T06:13:24;102091.28;;;8.35;100.00
20696;BME280;10507;52.754;13.040;2023-04-16T06:15:52;102082.44;;;8.34;100.00
20696;BME280;10507;52.754;13.040;2023-04-16T06:18:19;102050.63;;;8.25;100.00
20696;BME280;10507;52.754;13.040;2023-04-16T06:20:47;102069.13;;;8.32;100.00
20696;BME280;10507;52.754;13.040;2023-04-16T06:23:15;102054.16;;;8.27;100.00
20696;BME280;10507;52.754;13.040;2023-04-16T06:25:42;102085.97;;;8.33;100.00
20696;BME280;10507;52.754;13.040;2023-04-16T06:28:10;102113.31;;;8.44;100.00
20696;BME280;10507;52.754;13.040;2023-04-16T06:30:39;102088.50;;;8.44;100.00
20696;BME280;10507;52.754;13.040;2023-04-16T06:33:10;102070.72;;;8.46;100.00
20696;BME280;10507;52.754;13.040;2023-04-16T06:35:37;102044.13;;;8.43;100.00
20696;BME280;10507;52.754;13.040;2023-04-16T06:38:05;102040.59;;;8.44;100.00
20696;BME280;10507;52.754;13.040;2023-04-16T06:40:33;102025.50;;;8.43;100.00
20696;BME280;10507;52.754;13.040;2023-04-16T06:43:02;102031.72;;;8.43;100.00
20696;BME280;10507;52.754;13.040;2023-04-16T06:45:30;102017.47;;;8.46;100.00
20696;BME280;10507;52.754;13.040;2023-04-16T06:47:59;102010.38;;;8.45;100.00
20696;BME280;10507;52.754;13.040;2023-04-16T06:50:28;102003.34;;;8.41;100.00
20696;BME280;10507;52.754;13.040;2023-04-16T06:52:56;102035.19;;;8.47;100.00
20696;BME280;10507;52.754;13.040;2023-04-16T06:55:24;102029.81;;;8.50;100.00
20696;BME280;10507;52.754;13.040;2023-04-16T06:57:52;102039.47;;;8.56;100.00
20696;BME280;10507;52.754;13.040;2023-04-16T07:00:20;102049.06;;;8.64;100.00
20696;BME280;10507;52.754;13.040;2023-04-16T07:02:48;102049.00;;;8.67;100.00
20696;BME280;10507;52.754;13.040;2023-04-16T07:05:18;101984.47;;;8.55;100.00
20696;BME280;10507;52.754;13.040;2023-04-16T07:07:45;102018.91;;;8.64;100.00
20696;BME280;10507;52.754;13.040;2023-04-16T07:10:13;102022.44;;;8.64;100.00
20696;BME280;10507;52.754;13.040;2023-04-16T07:12:41;102015.28;;;8.68;100.00
20696;BME280;10507;52.754;13.040;2023-04-16T07:15:10;102008.25;;;8.64;100.00
20696;BME280;10507;52.754;13.040;2023-04-16T07:17:37;101973.75;;;8.59;100.00
20696;BME280;10507;52.754;13.040;2023-04-16T07:20:07;101976.34;;;8.61;100.00
20696;BME280;10507;52.754;13.040;2023-04-16T07:22:36;101973.69;;;8.61;100.00
20696;BME280;10507;52.754;13.040;2023-04-16T07:25:04;101978.13;;;8.62;100.00
20696;BME280;10507;52.754;13.040;2023-04-16T07:27:32;102000.19;;;8.67;100.00
20696;BME280;10507;52.754;13.040;2023-04-16T07:30:00;102008.09;;;8.71;100.00
20696;BME280;10507;52.754;13.040;2023-04-16T07:32:27;101972.69;;;8.66;100.00
20696;BME280;10507;52.754;13.040;2023-04-16T07:34:55;101982.38;;;8.70;100.00
20696;BME280;10507;52.754;13.040;2023-04-16T07:37:23;101974.34;;;8.72;100.00
20696;BME280;10507;52.754;13.040;2023-04-16T07:39:53;101930.19;;;8.63;100.00
20696;BME280;10507;52.754;13.040;2023-04-16T07:42:23;101967.28;;;8.69;100.00
20696;BME280;10507;52.754;13.040;2023-04-16T07:44:50;101969.88;;;8.74;100.00
20696;BME280;10507;52.754;13.040;2023-04-16T07:47:18;101942.44;;;8.70;100.00
20696;BME280;10507;52.754;13.040;2023-04-16T07:49:46;101930.03;;;8.69;100.00
20696;BME280;10507;52.754;13.040;2023-04-16T07:52:14;101952.03;;;8.78;100.00
20696;BME280;10507;52.754;13.040;2023-04-16T07:54:42;101941.38;;;8.79;100.00
20696;BME280;10507;52.754;13.040;2023-04-16T07:57:11;101937.75;;;8.82;100.00
20696;BME280;10507;52.754;13.040;2023-04-16T07:59:39;101958.00;;;8.89;100.00
20696;BME280;10507;52.754;13.040;2023-04-16T08:02:08;101952.59;;;8.92;100.00
20696;BME280;10507;52.754;13.040;2023-04-16T08:04:40;101915.47;;;8.86;100.00
20696;BME280;10507;52.754;13.040;2023-04-16T08:07:10;101946.38;;;8.93;100.00
20696;BME280;10507;52.754;13.040;2023-04-16T08:09:46;101883.66;;;8.80;100.00
20696;BME280;10507;52.754;13.040;2023-04-16T08:12:16;101917.22;;;8.87;100.00
20696;BME280;10507;52.754;13.040;2023-04-16T08:14:44;101919.81;;;8.90;100.00
20696;BME280;10507;52.754;13.040;2023-04-16T08:17:13;101921.53;;;8.92;100.00
20696;BME280;10507;52.754;13.040;2023-04-16T08:19:41;101921.66;;;8.88;100.00
20696;BME280;10507;52.754;13.040;2023-04-16T08:22:10;101896.00;;;8.84;100.00
20696;BME280;10507;52.754;13.040;2023-04-16T08:24:40;101929.59;;;8.89;100.00
20696;BME280;10507;52.754;13.040;2023-04-16T08:27:08;101931.31;;;8.92;100.00
20696;BME280;10507;52.754;13.040;2023-04-16T08:29:46;101941.81;;;8.98;100.00
20696;BME280;10507;52.754;13.040;2023-04-16T08:32:14;101925.03;;;8.94;100.00
20696;BME280;10507;52.754;13.040;2023-04-16T08:34:42;101933.91;;;8.95;100.00
20696;BME280;10507;52.754;13.040;2023-04-16T08:37:12;101935.63;;;8.98;100.00
20696;BME280;10507;52.754;13.040;2023-04-16T08:39:39;101947.97;;;9.02;100.00
20696;BME280;10507;52.754;13.040;2023-04-16T08:42:12;101937.25;;;9.03;100.00
20696;BME280;10507;52.754;13.040;2023-04-16T08:44:43;101949.59;;;9.09;100.00
20696;BME280;10507;52.754;13.040;2023-04-16T08:47:16;101972.47;;;9.18;100.00
20696;BME280;10507;52.754;13.040;2023-04-16T08:49:50;101944.84;;;9.22;100.00
20696;BME280;10507;52.754;13.040;2023-04-16T08:52:24;101918.13;;;9.25;100.00
20696;BME280;10507;52.754;13.040;2023-04-16T08:55:02;101933.78;;;9.39;100.00
20696;BME280;10507;52.754;13.040;2023-04-16T08:57:37;101919.47;;;9.43;100.00
20696;BME280;10507;52.754;13.040;2023-04-16T09:00:07;101884.78;;;9.44;100.00
20696;BME280;10507;52.754;13.040;2023-04-16T09:02:37;101878.44;;;9.48;100.00
20696;BME280;10507;52.754;13.040;2023-04-16T09:05:06;101926.75;;;9.70;100.00
20696;BME280;10507;52.754;13.040;2023-04-16T09:07:35;101910.59;;;9.76;100.00
20696;BME280;10507;52.754;13.040;2023-04-16T09:10:06;101860.03;;;9.72;100.00
20696;BME280;10507;52.754;13.040;2023-04-16T09:12:34;101808.63;;;9.67;100.00
20696;BME280;10507;52.754;13.040;2023-04-16T09:15:04;101817.47;;;9.69;100.00
20696;BME280;10507;52.754;13.040;2023-04-16T09:17:33;101824.38;;;9.76;100.00
20696;BME280;10507;52.754;13.040;2023-04-16T09:20:02;101801.38;;;9.72;100.00
20696;BME280;10507;52.754;13.040;2023-04-16T09:22:31;101829.50;;;9.84;100.00
20696;BME280;10507;52.754;13.040;2023-04-16T09:24:59;101796.50;;;9.86;100.00
20696;BME280;10507;52.754;13.040;2023-04-16T09:27:27;101846.88;;;9.98;100.00
20696;BME280;10507;52.754;13.040;2023-04-16T09:29:55;101822.72;;;10.03;100.00
20696;BME280;10507;52.754;13.040;2023-04-16T09:32:24;101850.63;;;10.23;100.00
20696;BME280;10507;52.754;13.040;2023-04-16T09:34:54;101785.97;;;10.13;100.00
20696;BME280;10507;52.754;13.040;2023-04-16T09:37:25;101790.06;;;10.25;100.00
20696;BME280;10507;52.754;13.040;2023-04-16T09:39:56;101892.25;;;10.61;100.00
20696;BME280;10507;52.754;13.040;2023-04-16T09:42:26;101807.59;;;10.63;100.00
20696;BME280;10507;52.754;13.040;2023-04-16T09:44:55;101768.44;;;10.62;100.00
20696;BME280;10507;52.754;13.040;2023-04-16T09:47:38;101769.28;;;10.64;100.00
20696;BME280;10507;52.754;13.040;2023-04-16T09:50:07;101747.09;;;10.62;100.00
20696;BME280;10507;52.754;13.040;2023-04-16T09:52:42;101701.94;;;10.54;100.00
20696;BME280;10507;52.754;13.040;2023-04-16T09:55:10;101710.94;;;10.52;100.00
20696;BME280;10507;52.754;13.040;2023-04-16T09:57:38;101645.84;;;10.28;100.00
20696;BME280;10507;52.754;13.040;2023-04-16T10:00:07;101705.94;;;10.41;100.00
20696;BME280;10507;52.754;13.040;2023-04-16T10:02:38;101687.41;;;10.36;100.00
20696;BME280;10507;52.754;13.040;2023-04-16T10:05:08;101706.81;;;10.42;100.00
20696;BME280;10507;52.754;13.040;2023-04-16T10:07:36;101705.91;;;10.43;100.00
20696;BME280;10507;52.754;13.040;2023-04-16T10:10:06;101708.66;;;10.39;100.00
20696;BME280;10507;52.754;13.040;2023-04-16T10:12:34;101703.31;;;10.39;100.00
20696;BME280;10507;52.754;13.040;2023-04-16T10:15:03;101767.78;;;10.55;100.00
20696;BME280;10507;52.754;13.040;2023-04-16T10:17:31;101736.53;;;10.59;100.00
20696;BME280;10507;52.754;13.040;2023-04-16T10:20:00;101733.50;;;10.70;100.00
20696;BME280;10507;52.754;13.040;2023-04-16T10:22:29;101749.97;;;10.82;100.00
20696;BME280;10507;52.754;13.040;2023-04-16T10:24:57;101779.63;;;11.01;100.00
20696;BME280;10507;52.754;13.040;2023-04-16T10:27:27;101771.19;;;11.14;100.00
20696;BME280;10507;52.754;13.040;2023-04-16T10:29:56;101761.72;;;11.30;100.00
20696;BME280;10507;52.754;13.040;2023-04-16T10:32:24;101836.16;;;11.68;100.00
20696;BME280;10507;52.754;13.040;2023-04-16T10:34:54;101799.78;;;11.87;100.00
20696;BME280;10507;52.754;13.040;2023-04-16T10:37:28;101678.09;;;11.74;100.00
20696;BME280;10507;52.754;13.040;2023-04-16T10:39:57;101719.38;;;11.92;100.00
20696;BME280;10507;52.754;13.040;2023-04-16T10:42:24;101745.41;;;12.10;100.00
20696;BME280;10507;52.754;13.040;2023-04-16T10:44:58;101634.69;;;11.91;100.00
20696;BME280;10507;52.754;13.040;2023-04-16T10:47:27;101617.63;;;11.93;100.00
20696;BME280;10507;52.754;13.040;2023-04-16T10:49:57;101584.03;;;11.84;100.00
20696;BME280;10507;52.754;13.040;2023-04-16T10:52:28;101456.38;;;11.44;100.00
20696;BME280;10507;52.754;13.040;2023-04-16T10:54:57;101502.06;;;11.38;100.00
20696;BME280;10507;52.754;13.040;2023-04-16T10:57:27;101501.88;;;11.20;100.00
20696;BME280;10507;52.754;13.040;2023-04-16T10:59:57;101481.72;;;10.88;100.00
20696;BME280;10507;52.754;13.040;2023-04-16T11:02:28;101474.81;;;10.59;100.00
20696;BME280;10507;52.754;13.040;2023-04-16T11:04:56;101528.56;;;10.50;100.00
20696;BME280;10507;52.754;13.040;2023-04-16T11:07:32;101569.75;;;10.43;100.00
20696;BME280;10507;52.754;13.040;2023-04-16T11:10:02;101558.50;;;10.33;100.00
20696;BME280;10507;52.754;13.040;2023-04-16T11:12:33;101595.81;;;10.34;100.00
20696;BME280;10507;52.754;13.040;2023-04-16T11:15:06;101631.28;;;10.38;100.00
20696;BME280;10507;52.754;13.040;2023-04-16T11:17:37;101665.84;;;10.43;100.00
20696;BME280;10507;52.754;13.040;2023-04-16T11:20:06;101672.72;;;10.50;100.00
20696;BME280;10507;52.754;13.040;2023-04-16T11:22:46;101668.00;;;10.58;100.00
20696;BME280;10507;52.754;13.040;2023-04-16T11:25:18;101723.31;;;10.81;100.00
20696;BME280;10507;52.754;13.040;2023-04-16T11:27:46;101732.84;;;10.90;100.00
20696;BME280;10507;52.754;13.040;2023-04-16T11:30:16;101740.41;;;11.02;100.00
20696;BME280;10507;52.754;13.040;2023-04-16T11:32:44;101745.97;;;11.21;100.00
20696;BME280;10507;52.754;13.040;2023-04-16T11:35:13;101671.09;;;11.22;100.00
20696;BME280;10507;52.754;13.040;2023-04-16T11:37:42;101654.88;;;11.27;100.00
20696;BME280;10507;52.754;13.040;2023-04-16T11:40:11;101673.97;;;11.41;100.00
20696;BME280;10507;52.754;13.040;2023-04-16T11:42:40;101622.00;;;11.49;100.00
20696;BME280;10507;52.754;13.040;2023-04-16T11:45:10;101627.25;;;11.74;100.00
20696;BME280;10507;52.754;13.040;2023-04-16T11:47:43;101595.28;;;11.71;100.00
20696;BME280;10507;52.754;13.040;2023-04-16T11:50:18;101615.75;;;11.95;100.00
20696;BME280;10507;52.754;13.040;2023-04-16T11:52:48;101518.88;;;11.85;100.00
20696;BME280;10507;52.754;13.040;2023-04-16T11:55:16;101530.84;;;11.99;100.00
20696;BME280;10507;52.754;13.040;2023-04-16T11:57:44;101464.13;;;11.94;100.00
20696;BME280;10507;52.754;13.040;2023-04-16T12:00:13;101519.69;;;12.10;100.00
20696;BME280;10507;52.754;13.040;2023-04-16T12:02:43;101467.50;;;12.20;100.00
20696;BME280;10507;52.754;13.040;2023-04-16T12:05:29;101377.81;;;12.10;100.00
20696;BME280;10507;52.754;13.040;2023-04-16T12:07:59;101349.31;;;12.09;99.58
20696;BME280;10507;52.754;13.040;2023-04-16T12:10:29;101351.66;;;12.16;99.18
20696;BME280;10507;52.754;13.040;2023-04-16T12:13:09;101341.94;;;12.14;98.82
20696;BME280;10507;52.754;13.040;2023-04-16T12:15:44;101301.25;;;12.05;99.28
20696;BME280;10507;52.754;13.040;2023-04-16T12:18:14;101406.72;;;12.22;99.85
20696;BME280;10507;52.754;13.040;2023-04-16T12:20:44;101396.78;;;12.24;99.69
20696;BME280;10507;52.754;13.040;2023-04-16T12:23:22;101251.44;;;12.03;98.62
20696;BME280;10507;52.754;13.040;2023-04-16T12:25:49;101344.63;;;12.14;99.20
20696;BME280;10507;52.754;13.040;2023-04-16T12:28:27;101294.91;;;12.08;99.27
20696;BME280;10507;52.754;13.040;2023-04-16T12:30:55;101284.63;;;11.99;98.30
20696;BME280;10507;52.754;13.040;2023-04-16T12:33:24;101344.03;;;12.07;99.50
20696;BME280;10507;52.754;13.040;2023-04-16T12:35:52;101288.84;;;12.04;99.27
20696;BME280;10507;52.754;13.040;2023-04-16T12:38:20;101302.88;;;12.10;99.09
20696;BME280;10507;52.754;13.040;2023-04-16T12:40:50;101351.06;;;12.28;99.51
20696;BME280;10507;52.754;13.040;2023-04-16T12:43:22;101350.09;;;12.31;99.64
20696;BME280;10507;52.754;13.040;2023-04-16T12:45:50;101245.41;;;12.17;98.62